Wetterdaten: Woche 03.03.08 - 09.03.08 (KW10)
Datum Zeit Temperatur Luftfeuchte Luftdruck Niederschlag Wind Richtung Sonnenschein Solar Taupunkt Windchill Windben
03.03.2008 00:00 8.9 C 78 % 1015.2 hPa 0.0 l/m 0.6 km/h (0 Bft) S-SO 0.00 h 0 W/m 5.3 C 8.9 C 1.4 km/h (1 Bft)
03.03.2008 01:00 8.8 C 79 % 1014.7 hPa 0.0 l/m 1.8 km/h (1 Bft) W-SW 0.00 h 0 W/m 5.4 C 8.7 C 4.2 km/h (1 Bft)
03.03.2008 02:00 8.9 C 80 % 1014.4 hPa 0.0 l/m 3.6 km/h (1 Bft) W-SW 0.00 h 0 W/m 5.6 C 8.7 C 6.9 km/h (2 Bft)
03.03.2008 03:00 8.3 C 80 % 1013.7 hPa 0.0 l/m 3.3 km/h (1 Bft) S-SO 0.00 h 0 W/m 5.0 C 8.0 C 6.6 km/h (2 Bft)
03.03.2008 04:00 7.4 C 83 % 1013.6 hPa 0.0 l/m 3.5 km/h (1 Bft) S 0.00 h 0 W/m 4.7 C 7.2 C 6.7 km/h (2 Bft)
03.03.2008 05:00 7.3 C 83 % 1013.5 hPa 0.0 l/m 5.1 km/h (1 Bft) S-SO 0.00 h 0 W/m 4.7 C 6.6 C 9.2 km/h (2 Bft)
03.03.2008 06:00 7.3 C 83 % 1013.5 hPa 0.0 l/m 5.4 km/h (1 Bft) S-SO 0.00 h 0 W/m 4.6 C 6.6 C 10.1 km/h (2 Bft)
03.03.2008 07:00 7.4 C 83 % 1013.3 hPa 0.0 l/m 2.9 km/h (1 Bft) S 0.00 h 14 W/m 4.7 C 7.3 C 6.2 km/h (2 Bft)
03.03.2008 08:00 8.4 C 80 % 1013.3 hPa 0.0 l/m 3.1 km/h (1 Bft) S-SW 0.00 h 77 W/m 5.2 C 8.3 C 6.5 km/h (2 Bft)
03.03.2008 09:00 10.0 C 75 % 1013.2 hPa 0.0 l/m 2.9 km/h (1 Bft) S 0.00 h 104 W/m 5.8 C 10.0 C 6.4 km/h (2 Bft)
03.03.2008 10:00 10.6 C 73 % 1013.1 hPa 0.0 l/m 5.0 km/h (1 Bft) W-SW 0.00 h 86 W/m 6.0 C 10.6 C 8.8 km/h (2 Bft)
03.03.2008 11:00 11.2 C 72 % 1012.9 hPa 0.0 l/m 4.1 km/h (1 Bft) W 0.00 h 84 W/m 6.4 C 11.2 C 7.0 km/h (2 Bft)
03.03.2008 12:00 10.6 C 81 % 1012.6 hPa 0.6 l/m 2.5 km/h (1 Bft) S-SW 0.00 h 76 W/m 7.5 C 10.6 C 5.7 km/h (1 Bft)
03.03.2008 13:00 10.1 C 86 % 1012.0 hPa 0.6 l/m 8.1 km/h (2 Bft) W 0.08 h 138 W/m 7.9 C 9.5 C 13.2 km/h (3 Bft)
03.03.2008 14:00 10.8 C 78 % 1011.3 hPa 0.2 l/m 18.7 km/h (3 Bft) W 0.15 h 199 W/m 7.2 C 10.7 C 28.3 km/h (4 Bft)
03.03.2008 15:00 10.5 C 80 % 1011.0 hPa 0.2 l/m 12.5 km/h (3 Bft) W 0.37 h 216 W/m 7.1 C 10.1 C 19.6 km/h (3 Bft)
03.03.2008 16:00 11.1 C 68 % 1010.7 hPa 0.0 l/m 13.8 km/h (3 Bft) W 0.00 h 76 W/m 5.5 C 11.1 C 21.3 km/h (4 Bft)
03.03.2008 17:00 9.5 C 72 % 1011.2 hPa 0.2 l/m 15.4 km/h (3 Bft) W-NW 0.00 h 30 W/m 4.6 C 8.8 C 24.0 km/h (4 Bft)
03.03.2008 18:00 6.1 C 84 % 1013.0 hPa 0.2 l/m 7.4 km/h (2 Bft) W 0.00 h 0 W/m 3.6 C 4.7 C 11.7 km/h (2 Bft)
03.03.2008 19:00 5.2 C 85 % 1014.1 hPa 0.2 l/m 9.4 km/h (2 Bft) W-NW 0.00 h 0 W/m 2.8 C 3.1 C 14.5 km/h (3 Bft)
03.03.2008 20:00 4.5 C 88 % 1014.4 hPa 0.0 l/m 11.4 km/h (2 Bft) W 0.00 h 0 W/m 2.7 C 1.9 C 17.7 km/h (3 Bft)
03.03.2008 21:00 4.3 C 87 % 1015.1 hPa 0.0 l/m 12.4 km/h (3 Bft) W 0.00 h 0 W/m 2.2 C 1.4 C 19.1 km/h (3 Bft)
03.03.2008 22:00 4.0 C 85 % 1015.9 hPa 0.0 l/m 11.4 km/h (2 Bft) W 0.00 h 0 W/m 1.7 C 1.3 C 17.8 km/h (3 Bft)
03.03.2008 23:00 4.0 C 83 % 1016.0 hPa 0.0 l/m 5.2 km/h (1 Bft) W 0.00 h 0 W/m 1.4 C 3.0 C 8.1 km/h (2 Bft)
04.03.2008 00:00 3.5 C 82 % 1015.5 hPa 0.0 l/m 6.3 km/h (2 Bft) W 0.00 h 0 W/m 0.7 C 2.2 C 10.5 km/h (2 Bft)
04.03.2008 01:00 2.8 C 81 % 1015.0 hPa 0.0 l/m 5.0 km/h (1 Bft) O-SO 0.00 h 0 W/m -0.1 C 1.6 C 7.6 km/h (2 Bft)
04.03.2008 02:00 1.7 C 84 % 1014.7 hPa 0.0 l/m 4.6 km/h (1 Bft) O-SO 0.00 h 0 W/m -0.7 C 0.7 C 6.0 km/h (2 Bft)
04.03.2008 03:00 0.7 C 87 % 1014.2 hPa 0.0 l/m 2.0 km/h (1 Bft) SO 0.00 h 0 W/m -1.2 C 0.5 C 3.4 km/h (1 Bft)
04.03.2008 04:00 0.2 C 89 % 1013.4 hPa 0.0 l/m 1.5 km/h (1 Bft) O-SO 0.00 h 0 W/m -1.3 C 0.2 C 2.6 km/h (1 Bft)
04.03.2008 05:00 0.4 C 91 % 1013.1 hPa 0.0 l/m 0.4 km/h (0 Bft) S-SO 0.00 h 0 W/m -0.9 C 0.4 C 1.1 km/h (1 Bft)
04.03.2008 06:00 0.4 C 92 % 1012.8 hPa 0.0 l/m 0.3 km/h (0 Bft) S-SO 0.00 h 0 W/m -0.8 C 0.4 C 0.6 km/h (0 Bft)
04.03.2008 07:00 0.6 C 93 % 1013.0 hPa 0.0 l/m 1.5 km/h (1 Bft) W 0.15 h 21 W/m -0.4 C 0.6 C 3.2 km/h (1 Bft)
04.03.2008 08:00 0.9 C 94 % 1013.2 hPa 0.8 l/m 0.2 km/h (0 Bft) N-NW 0.03 h 46 W/m -0.0 C 0.9 C 1.0 km/h (0 Bft)
04.03.2008 09:00 1.7 C 96 % 1013.4 hPa 0.0 l/m 1.9 km/h (1 Bft) W-SW 0.18 h 150 W/m 1.1 C 1.6 C 4.1 km/h (1 Bft)
04.03.2008 10:00 3.3 C 88 % 1013.3 hPa 0.0 l/m 10.5 km/h (2 Bft) W 0.67 h 380 W/m 1.4 C 0.7 C 16.7 km/h (3 Bft)
04.03.2008 11:00 4.3 C 74 % 1013.2 hPa 0.0 l/m 15.4 km/h (3 Bft) W-NW 0.48 h 393 W/m 0.0 C 0.9 C 22.9 km/h (4 Bft)
04.03.2008 12:00 4.5 C 71 % 1013.1 hPa 0.0 l/m 13.7 km/h (3 Bft) W 0.03 h 193 W/m -0.3 C 1.4 C 20.5 km/h (4 Bft)
04.03.2008 13:00 5.4 C 65 % 1013.1 hPa 0.0 l/m 10.5 km/h (2 Bft) W-NW 0.30 h 294 W/m -0.8 C 3.0 C 16.2 km/h (3 Bft)
04.03.2008 14:00 6.0 C 61 % 1013.0 hPa 0.0 l/m 13.8 km/h (3 Bft) W-NW 0.70 h 448 W/m -1.0 C 3.3 C 21.8 km/h (4 Bft)
04.03.2008 15:00 5.4 C 61 % 1013.3 hPa 0.0 l/m 9.2 km/h (2 Bft) W-NW 0.17 h 146 W/m -1.4 C 3.5 C 15.1 km/h (3 Bft)
04.03.2008 16:00 5.2 C 63 % 1013.7 hPa 0.0 l/m 7.4 km/h (2 Bft) W-NW 0.00 h 114 W/m -1.2 C 3.6 C 11.7 km/h (2 Bft)
04.03.2008 17:00 4.9 C 67 % 1014.3 hPa 0.0 l/m 7.7 km/h (2 Bft) W-NW 0.27 h 55 W/m -0.7 C 3.2 C 12.4 km/h (3 Bft)
04.03.2008 18:00 4.2 C 71 % 1015.4 hPa 0.0 l/m 6.4 km/h (2 Bft) W-NW 0.03 h 10 W/m -0.5 C 3.0 C 10.4 km/h (2 Bft)
04.03.2008 19:00 3.5 C 76 % 1016.3 hPa 0.0 l/m 2.9 km/h (1 Bft) N-NW 0.00 h 0 W/m -0.3 C 3.1 C 5.0 km/h (1 Bft)
04.03.2008 20:00 3.3 C 80 % 1016.8 hPa 0.0 l/m 1.3 km/h (1 Bft) N-NW 0.00 h 0 W/m 0.2 C 3.3 C 2.7 km/h (1 Bft)
04.03.2008 21:00 3.1 C 82 % 1017.5 hPa 0.0 l/m 6.2 km/h (2 Bft) NW 0.00 h 0 W/m 0.3 C 1.8 C 10.3 km/h (2 Bft)
04.03.2008 22:00 2.4 C 79 % 1018.4 hPa 0.0 l/m 7.2 km/h (2 Bft) N 0.00 h 0 W/m -0.9 C 0.6 C 13.8 km/h (3 Bft)
04.03.2008 23:00 0.9 C 90 % 1019.1 hPa 0.6 l/m 1.7 km/h (1 Bft) N 0.00 h 0 W/m -0.5 C 0.7 C 3.6 km/h (1 Bft)
05.03.2008 00:00 1.2 C 89 % 1019.2 hPa 0.0 l/m 1.8 km/h (1 Bft) NW 0.00 h 0 W/m -0.3 C 1.1 C 3.9 km/h (1 Bft)
05.03.2008 01:00 1.4 C 87 % 1019.2 hPa 0.0 l/m 1.2 km/h (1 Bft) O 0.00 h 0 W/m -0.5 C 1.3 C 3.0 km/h (1 Bft)
05.03.2008 02:00 1.8 C 79 % 1019.6 hPa 0.0 l/m 3.1 km/h (1 Bft) N 0.00 h 0 W/m -1.3 C 1.4 C 6.2 km/h (2 Bft)
05.03.2008 03:00 1.9 C 75 % 1019.9 hPa 0.0 l/m 6.7 km/h (2 Bft) N-NO 0.00 h 0 W/m -2.1 C 0.3 C 11.7 km/h (2 Bft)
05.03.2008 04:00 1.7 C 72 % 1020.6 hPa 0.0 l/m 7.1 km/h (2 Bft) N 0.00 h 0 W/m -2.9 C -0.2 C 12.5 km/h (3 Bft)
05.03.2008 05:00 1.1 C 71 % 1021.6 hPa 0.0 l/m 8.8 km/h (2 Bft) N-NW 0.00 h 0 W/m -3.5 C -1.4 C 15.3 km/h (3 Bft)
05.03.2008 06:00 0.6 C 72 % 1022.5 hPa 0.0 l/m 4.1 km/h (1 Bft) NO 0.00 h 0 W/m -3.8 C -0.3 C 8.0 km/h (2 Bft)
05.03.2008 07:00 0.8 C 73 % 1023.6 hPa 0.0 l/m 10.1 km/h (2 Bft) N-NW 0.00 h 22 W/m -3.4 C -2.0 C 16.9 km/h (3 Bft)
05.03.2008 08:00 0.8 C 69 % 1024.9 hPa 0.0 l/m 9.4 km/h (2 Bft) N 0.00 h 59 W/m -4.2 C -2.0 C 17.4 km/h (3 Bft)
05.03.2008 09:00 0.6 C 66 % 1026.0 hPa 0.0 l/m 9.8 km/h (2 Bft) N 0.40 h 196 W/m -5.0 C -2.3 C 18.1 km/h (3 Bft)
05.03.2008 10:00 1.5 C 57 % 1026.5 hPa 0.0 l/m 15.0 km/h (3 Bft) N 1.00 h 472 W/m -6.0 C -2.4 C 25.9 km/h (4 Bft)
05.03.2008 11:00 2.4 C 48 % 1027.3 hPa 0.0 l/m 14.5 km/h (3 Bft) N 1.00 h 557 W/m -7.4 C -1.3 C 25.4 km/h (4 Bft)
05.03.2008 12:00 3.1 C 45 % 1027.6 hPa 0.0 l/m 14.2 km/h (3 Bft) N-NW 1.00 h 591 W/m -7.7 C -0.3 C 24.4 km/h (4 Bft)
05.03.2008 13:00 3.9 C 39 % 1027.7 hPa 0.0 l/m 13.0 km/h (3 Bft) N-NW 1.00 h 580 W/m -8.7 C 0.8 C 22.9 km/h (4 Bft)
05.03.2008 14:00 4.2 C 37 % 1027.8 hPa 0.0 l/m 11.4 km/h (2 Bft) N 0.72 h 477 W/m -9.1 C 1.6 C 20.1 km/h (4 Bft)
05.03.2008 15:00 3.9 C 42 % 1028.1 hPa 0.0 l/m 9.8 km/h (2 Bft) N 0.62 h 322 W/m -7.9 C 1.7 C 17.3 km/h (3 Bft)
05.03.2008 16:00 3.8 C 43 % 1028.4 hPa 0.0 l/m 10.0 km/h (2 Bft) N-NW 0.97 h 243 W/m -7.8 C 1.3 C 17.8 km/h (3 Bft)
05.03.2008 17:00 2.2 C 49 % 1028.9 hPa 0.0 l/m 7.3 km/h (2 Bft) N 0.30 h 58 W/m -7.4 C 0.3 C 13.0 km/h (3 Bft)
05.03.2008 18:00 1.0 C 56 % 1029.8 hPa 0.0 l/m 6.8 km/h (2 Bft) N 0.03 h 9 W/m -6.8 C -1.0 C 12.8 km/h (3 Bft)
05.03.2008 19:00 0.1 C 61 % 1030.3 hPa 0.0 l/m 4.4 km/h (1 Bft) N 0.00 h 0 W/m -6.4 C -0.8 C 8.7 km/h (2 Bft)
05.03.2008 20:00 -0.5 C 64 % 1030.6 hPa 0.0 l/m 0.9 km/h (0 Bft) N-NO 0.00 h 0 W/m -6.6 C -0.6 C 2.4 km/h (1 Bft)
05.03.2008 21:00 -1.1 C 66 % 1030.6 hPa 0.0 l/m 1.8 km/h (1 Bft) O 0.00 h 0 W/m -6.6 C -1.2 C 3.8 km/h (1 Bft)
05.03.2008 22:00 -1.5 C 67 % 1030.6 hPa 0.0 l/m 1.6 km/h (1 Bft) NO 0.00 h 0 W/m -6.8 C -1.5 C 3.9 km/h (1 Bft)
05.03.2008 23:00 -1.7 C 65 % 1030.5 hPa 0.0 l/m 2.7 km/h (1 Bft) N-NO 0.00 h 0 W/m -7.3 C -1.9 C 5.8 km/h (2 Bft)
06.03.2008 00:00 -2.0 C 64 % 1030.2 hPa 0.0 l/m 1.6 km/h (1 Bft) N-NO 0.00 h 0 W/m -7.8 C -2.0 C 3.9 km/h (1 Bft)
06.03.2008 01:00 -2.5 C 68 % 1029.8 hPa 0.0 l/m 1.8 km/h (1 Bft) NO 0.00 h 0 W/m -7.6 C -2.5 C 4.2 km/h (1 Bft)
06.03.2008 02:00 -3.0 C 69 % 1029.3 hPa 0.0 l/m 1.7 km/h (1 Bft) NO 0.00 h 0 W/m -7.8 C -3.1 C 4.3 km/h (1 Bft)
06.03.2008 03:00 -2.9 C 67 % 1028.5 hPa 0.0 l/m 2.7 km/h (1 Bft) NO 0.00 h 0 W/m -8.2 C -3.1 C 5.7 km/h (1 Bft)
06.03.2008 04:00 -3.3 C 68 % 1028.2 hPa 0.0 l/m 1.5 km/h (1 Bft) NO 0.00 h 0 W/m -8.3 C -3.3 C 4.0 km/h (1 Bft)
06.03.2008 05:00 -3.3 C 68 % 1028.1 hPa 0.0 l/m 1.6 km/h (1 Bft) NO 0.00 h 0 W/m -8.5 C -3.4 C 4.1 km/h (1 Bft)
06.03.2008 06:00 -4.3 C 73 % 1028.3 hPa 0.0 l/m 1.0 km/h (0 Bft) O-NO 0.00 h 5 W/m -8.4 C -4.4 C 2.4 km/h (1 Bft)
06.03.2008 07:00 -4.3 C 76 % 1028.3 hPa 0.0 l/m 0.0 km/h (0 Bft) N-NO 0.40 h 41 W/m -7.9 C -4.3 C 0.2 km/h (0 Bft)
06.03.2008 08:00 -2.4 C 71 % 1028.5 hPa 0.0 l/m 0.0 km/h (0 Bft) N 1.00 h 190 W/m -6.9 C -2.4 C 0.5 km/h (0 Bft)
06.03.2008 09:00 -0.0 C 56 % 1028.0 hPa 0.0 l/m 1.5 km/h (1 Bft) O 1.00 h 349 W/m -7.8 C -0.2 C 3.7 km/h (1 Bft)
06.03.2008 10:00 1.5 C 50 % 1027.5 hPa 0.0 l/m 5.7 km/h (1 Bft) O-SO 1.00 h 472 W/m -7.8 C 0.1 C 9.3 km/h (2 Bft)
06.03.2008 11:00 2.5 C 47 % 1027.0 hPa 0.0 l/m 10.2 km/h (2 Bft) O-SO 1.00 h 555 W/m -7.7 C -0.2 C 15.7 km/h (3 Bft)
06.03.2008 12:00 3.5 C 43 % 1026.3 hPa 0.0 l/m 8.2 km/h (2 Bft) O-SO 1.00 h 591 W/m -7.9 C 1.5 C 13.3 km/h (3 Bft)
06.03.2008 13:00 4.5 C 37 % 1025.4 hPa 0.0 l/m 8.0 km/h (2 Bft) O-SO 1.00 h 576 W/m -9.0 C 2.8 C 13.3 km/h (3 Bft)
06.03.2008 14:00 5.1 C 39 % 1024.6 hPa 0.0 l/m 9.1 km/h (2 Bft) SO 1.00 h 505 W/m -7.6 C 3.1 C 14.6 km/h (3 Bft)
06.03.2008 15:00 5.2 C 40 % 1023.9 hPa 0.0 l/m 7.8 km/h (2 Bft) O-SO 1.00 h 389 W/m -7.4 C 3.6 C 12.7 km/h (3 Bft)
06.03.2008 16:00 5.2 C 37 % 1023.4 hPa 0.0 l/m 7.6 km/h (2 Bft) O-SO 1.00 h 242 W/m -8.1 C 3.6 C 12.3 km/h (3 Bft)
06.03.2008 17:00 4.4 C 38 % 1023.4 hPa 0.0 l/m 5.1 km/h (1 Bft) O-SO 0.42 h 67 W/m -8.5 C 3.6 C 8.0 km/h (2 Bft)
06.03.2008 18:00 3.0 C 41 % 1023.6 hPa 0.0 l/m 0.7 km/h (0 Bft) O 0.03 h 9 W/m -9.0 C 2.9 C 1.7 km/h (1 Bft)
06.03.2008 19:00 1.3 C 49 % 1023.8 hPa 0.0 l/m 1.4 km/h (1 Bft) O 0.00 h 0 W/m -8.3 C 1.2 C 2.5 km/h (1 Bft)
06.03.2008 20:00 -0.6 C 63 % 1023.4 hPa 0.0 l/m 0.1 km/h (0 Bft) O 0.00 h 0 W/m -6.7 C -0.6 C 0.6 km/h (0 Bft)
06.03.2008 21:00 -1.6 C 69 % 1023.3 hPa 0.0 l/m 3.2 km/h (1 Bft) O-SO 0.00 h 0 W/m -6.5 C -2.3 C 4.6 km/h (1 Bft)
06.03.2008 22:00 -1.9 C 74 % 1023.2 hPa 0.0 l/m 1.1 km/h (1 Bft) O-SO 0.00 h 0 W/m -5.8 C -2.2 C 1.9 km/h (1 Bft)
06.03.2008 23:00 -2.1 C 76 % 1022.8 hPa 0.0 l/m 1.9 km/h (1 Bft) O-SO 0.00 h 0 W/m -5.8 C -2.8 C 2.9 km/h (1 Bft)
07.03.2008 00:00 -2.6 C 77 % 1022.1 hPa 0.0 l/m 1.2 km/h (1 Bft) O-SO 0.00 h 0 W/m -6.1 C -2.6 C 2.2 km/h (1 Bft)
07.03.2008 01:00 -2.8 C 75 % 1021.7 hPa 0.0 l/m 0.6 km/h (0 Bft) O-SO 0.00 h 0 W/m -6.7 C -2.8 C 1.2 km/h (1 Bft)
07.03.2008 02:00 -3.1 C 78 % 1020.3 hPa 0.0 l/m 1.6 km/h (1 Bft) O-SO 0.00 h 0 W/m -6.4 C -3.3 C 2.5 km/h (1 Bft)
07.03.2008 03:00 -3.4 C 78 % 1019.4 hPa 0.0 l/m 1.7 km/h (1 Bft) O-SO 0.00 h 0 W/m -6.7 C -3.5 C 2.8 km/h (1 Bft)
07.03.2008 04:00 -3.9 C 79 % 1018.7 hPa 0.0 l/m 0.3 km/h (0 Bft) O-SO 0.00 h 0 W/m -7.0 C -3.9 C 0.9 km/h (0 Bft)
07.03.2008 05:00 -3.9 C 84 % 1017.8 hPa 0.0 l/m 0.1 km/h (0 Bft) O-SO 0.00 h 0 W/m -6.2 C -3.9 C 0.3 km/h (0 Bft)
07.03.2008 06:00 -3.8 C 85 % 1017.3 hPa 0.0 l/m 0.1 km/h (0 Bft) O-SO 0.00 h 0 W/m -5.9 C -3.8 C 0.3 km/h (0 Bft)
07.03.2008 07:00 -3.6 C 86 % 1017.3 hPa 0.0 l/m 0.7 km/h (0 Bft) O-SO 0.07 h 39 W/m -5.6 C -3.6 C 1.7 km/h (1 Bft)
07.03.2008 08:00 -2.5 C 81 % 1017.0 hPa 0.0 l/m 0.4 km/h (0 Bft) O-NO 0.15 h 112 W/m -5.3 C -2.5 C 1.3 km/h (1 Bft)
07.03.2008 09:00 -1.0 C 74 % 1016.8 hPa 0.0 l/m 0.3 km/h (0 Bft) O-NO 0.10 h 196 W/m -5.1 C -1.0 C 1.1 km/h (0 Bft)
07.03.2008 10:00 0.8 C 68 % 1016.4 hPa 0.0 l/m 1.0 km/h (0 Bft) N 0.72 h 313 W/m -4.4 C 0.8 C 2.7 km/h (1 Bft)
07.03.2008 11:00 3.3 C 54 % 1015.4 hPa 0.0 l/m 1.8 km/h (1 Bft) N-NW 0.73 h 403 W/m -5.3 C 3.3 C 3.6 km/h (1 Bft)
07.03.2008 12:00 4.8 C 41 % 1014.8 hPa 0.0 l/m 3.0 km/h (1 Bft) W 0.15 h 288 W/m -7.3 C 4.6 C 5.5 km/h (1 Bft)
07.03.2008 13:00 5.6 C 39 % 1014.3 hPa 0.0 l/m 1.7 km/h (1 Bft) SW 0.22 h 293 W/m -7.1 C 5.6 C 4.2 km/h (1 Bft)
07.03.2008 14:00 5.9 C 38 % 1014.2 hPa 0.0 l/m 2.0 km/h (1 Bft) W 0.12 h 272 W/m -7.2 C 5.9 C 4.1 km/h (1 Bft)
07.03.2008 15:00 6.5 C 43 % 1014.1 hPa 0.0 l/m 2.7 km/h (1 Bft) S-SO 0.97 h 283 W/m -5.3 C 6.3 C 5.6 km/h (1 Bft)
07.03.2008 16:00 6.0 C 45 % 1014.2 hPa 0.0 l/m 3.1 km/h (1 Bft) S 0.30 h 154 W/m -5.0 C 5.7 C 6.1 km/h (2 Bft)
07.03.2008 17:00 4.7 C 51 % 1014.5 hPa 0.0 l/m 2.6 km/h (1 Bft) S 0.00 h 51 W/m -4.6 C 4.6 C 5.6 km/h (1 Bft)
07.03.2008 18:00 3.6 C 57 % 1015.1 hPa 0.0 l/m 3.7 km/h (1 Bft) S-SO 0.00 h 10 W/m -4.2 C 3.1 C 6.9 km/h (2 Bft)
07.03.2008 19:00 3.0 C 61 % 1015.4 hPa 0.0 l/m 2.9 km/h (1 Bft) S-SO 0.00 h 0 W/m -3.9 C 2.6 C 6.0 km/h (2 Bft)
07.03.2008 20:00 2.0 C 65 % 1015.4 hPa 0.0 l/m 0.4 km/h (0 Bft) S-SO 0.00 h 0 W/m -3.9 C 2.0 C 1.4 km/h (1 Bft)
07.03.2008 21:00 1.2 C 68 % 1015.7 hPa 0.0 l/m 0.9 km/h (0 Bft) O-SO 0.00 h 0 W/m -4.1 C 1.2 C 2.2 km/h (1 Bft)
07.03.2008 22:00 1.0 C 71 % 1015.7 hPa 0.0 l/m 1.7 km/h (1 Bft) SO 0.00 h 0 W/m -3.7 C 1.0 C 3.5 km/h (1 Bft)
07.03.2008 23:00 1.3 C 69 % 1015.5 hPa 0.0 l/m 0.8 km/h (0 Bft) S-SO 0.00 h 0 W/m -3.7 C 1.3 C 2.4 km/h (1 Bft)
08.03.2008 00:00 1.5 C 69 % 1015.4 hPa 0.0 l/m 0.9 km/h (0 Bft) S-SO 0.00 h 0 W/m -3.6 C 1.5 C 2.6 km/h (1 Bft)
08.03.2008 01:00 1.6 C 69 % 1015.2 hPa 0.0 l/m 0.4 km/h (0 Bft) SW 0.00 h 0 W/m -3.5 C 1.6 C 1.8 km/h (1 Bft)
08.03.2008 02:00 1.6 C 69 % 1014.9 hPa 0.0 l/m 0.4 km/h (0 Bft) SW 0.00 h 0 W/m -3.5 C 1.6 C 1.2 km/h (1 Bft)
08.03.2008 03:00 1.6 C 70 % 1014.7 hPa 0.0 l/m 0.6 km/h (0 Bft) S-SW 0.00 h 0 W/m -3.2 C 1.6 C 1.9 km/h (1 Bft)
08.03.2008 04:00 0.6 C 84 % 1014.9 hPa 0.2 l/m 0.3 km/h (0 Bft) S 0.00 h 0 W/m -1.9 C 0.6 C 1.1 km/h (1 Bft)
08.03.2008 05:00 -0.1 C 93 % 1015.2 hPa 0.4 l/m 0.0 km/h (0 Bft) N 0.00 h 0 W/m -1.1 C -0.1 C 0.2 km/h (0 Bft)
08.03.2008 06:00 -0.1 C 95 % 1015.2 hPa 0.4 l/m 0.0 km/h (0 Bft) N 0.00 h 0 W/m -0.8 C -0.1 C 0.0 km/h (0 Bft)
08.03.2008 07:00 0.2 C 96 % 1015.3 hPa 0.2 l/m 0.0 km/h (0 Bft) N 0.00 h 11 W/m -0.4 C 0.2 C 0.0 km/h (0 Bft)
08.03.2008 08:00 0.5 C 95 % 1015.6 hPa 0.0 l/m 0.0 km/h (0 Bft) N 0.00 h 36 W/m -0.1 C 0.5 C 0.0 km/h (0 Bft)
08.03.2008 09:00 1.1 C 93 % 1015.7 hPa 0.0 l/m 0.2 km/h (0 Bft) S 0.00 h 100 W/m 0.1 C 1.1 C 0.7 km/h (0 Bft)
08.03.2008 10:00 2.1 C 92 % 1015.6 hPa 0.0 l/m 0.2 km/h (0 Bft) S 0.00 h 172 W/m 0.9 C 2.1 C 0.9 km/h (0 Bft)
08.03.2008 11:00 3.2 C 88 % 1015.2 hPa 0.0 l/m 1.2 km/h (1 Bft) S 0.00 h 223 W/m 1.4 C 3.2 C 2.7 km/h (1 Bft)
08.03.2008 12:00 4.4 C 84 % 1014.8 hPa 0.0 l/m 2.5 km/h (1 Bft) W 0.37 h 327 W/m 1.9 C 4.3 C 5.0 km/h (1 Bft)
08.03.2008 13:00 5.4 C 81 % 1014.0 hPa 0.0 l/m 3.2 km/h (1 Bft) N-NW 1.00 h 356 W/m 2.4 C 5.2 C 5.6 km/h (1 Bft)
08.03.2008 14:00 7.2 C 75 % 1013.2 hPa 0.0 l/m 4.8 km/h (1 Bft) N-NW 1.00 h 522 W/m 3.0 C 6.7 C 7.9 km/h (2 Bft)
08.03.2008 15:00 8.0 C 71 % 1012.7 hPa 0.0 l/m 3.6 km/h (1 Bft) N-NW 1.00 h 364 W/m 3.1 C 7.8 C 6.4 km/h (2 Bft)
08.03.2008 16:00 7.9 C 69 % 1012.3 hPa 0.0 l/m 3.5 km/h (1 Bft) NW 1.00 h 231 W/m 2.5 C 7.7 C 5.7 km/h (1 Bft)
08.03.2008 17:00 7.5 C 68 % 1012.1 hPa 0.0 l/m 2.8 km/h (1 Bft) W-NW 0.30 h 68 W/m 2.0 C 7.4 C 4.6 km/h (1 Bft)
08.03.2008 18:00 5.8 C 77 % 1012.5 hPa 0.0 l/m 0.1 km/h (0 Bft) W-NW 0.00 h 9 W/m 2.1 C 5.8 C 0.5 km/h (0 Bft)
08.03.2008 19:00 3.9 C 84 % 1012.9 hPa 0.0 l/m 3.7 km/h (1 Bft) O-SO 0.00 h 0 W/m 1.4 C 3.3 C 5.0 km/h (1 Bft)
08.03.2008 20:00 2.5 C 88 % 1013.3 hPa 0.0 l/m 3.4 km/h (1 Bft) O-SO 0.00 h 0 W/m 0.8 C 2.0 C 4.8 km/h (1 Bft)
08.03.2008 21:00 1.6 C 91 % 1013.2 hPa 0.0 l/m 0.8 km/h (0 Bft) O-SO 0.00 h 0 W/m 0.3 C 1.6 C 1.3 km/h (1 Bft)
08.03.2008 22:00 0.9 C 92 % 1013.1 hPa 0.0 l/m 1.7 km/h (1 Bft) O-SO 0.00 h 0 W/m -0.2 C 0.9 C 2.6 km/h (1 Bft)
08.03.2008 23:00 0.3 C 94 % 1012.8 hPa 0.0 l/m 0.3 km/h (0 Bft) O-SO 0.00 h 0 W/m -0.6 C 0.3 C 0.9 km/h (0 Bft)
09.03.2008 00:00 -0.2 C 95 % 1012.8 hPa 0.0 l/m 1.9 km/h (1 Bft) O-SO 0.00 h 0 W/m -0.9 C -0.4 C 3.0 km/h (1 Bft)
09.03.2008 01:00 -0.5 C 96 % 1012.6 hPa 0.0 l/m 0.2 km/h (0 Bft) O-SO 0.00 h 0 W/m -1.1 C -0.5 C 0.5 km/h (0 Bft)
09.03.2008 02:00 -1.1 C 96 % 1012.3 hPa 0.0 l/m 0.1 km/h (0 Bft) O-SO 0.00 h 0 W/m -1.6 C -1.1 C 0.4 km/h (0 Bft)
09.03.2008 03:00 -1.2 C 98 % 1011.8 hPa 0.0 l/m 0.1 km/h (0 Bft) O-SO 0.00 h 0 W/m -1.5 C -1.2 C 0.5 km/h (0 Bft)
09.03.2008 04:00 -0.9 C 99 % 1011.4 hPa 0.0 l/m 0.1 km/h (0 Bft) O-SO 0.00 h 0 W/m -1.0 C -0.9 C 0.7 km/h (0 Bft)
09.03.2008 05:00 -0.7 C 99 % 1011.2 hPa 0.0 l/m 0.7 km/h (0 Bft) O-SO 0.00 h 0 W/m -0.8 C -0.7 C 1.7 km/h (1 Bft)
09.03.2008 06:00 -0.6 C 100 % 1011.0 hPa 0.0 l/m 0.4 km/h (0 Bft) O-SO 0.00 h 5 W/m -0.6 C -0.6 C 0.8 km/h (0 Bft)
09.03.2008 07:00 -0.6 C 100 % 1011.0 hPa 0.0 l/m 1.9 km/h (1 Bft) O-SO 0.00 h 20 W/m -0.6 C -0.8 C 3.4 km/h (1 Bft)
09.03.2008 08:00 -0.4 C 100 % 1011.0 hPa 0.0 l/m 0.5 km/h (0 Bft) O-SO 0.00 h 64 W/m -0.4 C -0.4 C 1.7 km/h (1 Bft)
09.03.2008 09:00 0.1 C 100 % 1010.9 hPa 0.0 l/m 0.3 km/h (0 Bft) O-SO 0.00 h 105 W/m 0.0 C 0.1 C 1.6 km/h (1 Bft)
09.03.2008 10:00 0.6 C 100 % 1010.2 hPa 0.0 l/m 0.6 km/h (0 Bft) O-SO 0.00 h 149 W/m 0.6 C 0.6 C 1.8 km/h (1 Bft)
09.03.2008 11:00 1.9 C 100 % 1009.4 hPa 0.0 l/m 1.5 km/h (1 Bft) O-SO 0.27 h 302 W/m 1.9 C 1.9 C 3.4 km/h (1 Bft)
09.03.2008 12:00 4.9 C 87 % 1008.2 hPa 0.0 l/m 2.9 km/h (1 Bft) N-NW 1.00 h 573 W/m 2.8 C 4.7 C 5.0 km/h (1 Bft)
09.03.2008 13:00 8.3 C 69 % 1006.8 hPa 0.0 l/m 2.1 km/h (1 Bft) N-NW 1.00 h 552 W/m 2.9 C 8.2 C 4.1 km/h (1 Bft)
09.03.2008 14:00 11.3 C 57 % 1005.7 hPa 0.0 l/m 3.6 km/h (1 Bft) N-NW 1.00 h 477 W/m 3.1 C 11.3 C 6.4 km/h (2 Bft)
09.03.2008 15:00 12.1 C 51 % 1005.3 hPa 0.0 l/m 6.6 km/h (2 Bft) S 0.72 h 279 W/m 2.4 C 12.1 C 12.8 km/h (3 Bft)
09.03.2008 16:00 11.0 C 55 % 1005.2 hPa 0.0 l/m 5.2 km/h (1 Bft) SW 0.08 h 136 W/m 2.2 C 11.0 C 9.9 km/h (2 Bft)
09.03.2008 17:00 10.4 C 56 % 1005.1 hPa 0.0 l/m 3.6 km/h (1 Bft) S 0.00 h 57 W/m 2.0 C 10.3 C 7.3 km/h (2 Bft)
09.03.2008 18:00 9.4 C 59 % 1005.3 hPa 0.0 l/m 4.6 km/h (1 Bft) S 0.00 h 8 W/m 1.9 C 9.1 C 8.8 km/h (2 Bft)
09.03.2008 19:00 8.5 C 64 % 1005.9 hPa 0.0 l/m 4.6 km/h (1 Bft) S 0.00 h 0 W/m 2.2 C 8.2 C 8.9 km/h (2 Bft)
09.03.2008 20:00 8.4 C 66 % 1006.1 hPa 0.0 l/m 4.5 km/h (1 Bft) S-SO 0.00 h 0 W/m 2.4 C 8.0 C 7.7 km/h (2 Bft)
09.03.2008 21:00 7.8 C 72 % 1006.9 hPa 0.0 l/m 2.0 km/h (1 Bft) SO 0.00 h 0 W/m 2.9 C 7.6 C 4.1 km/h (1 Bft)
09.03.2008 22:00 7.2 C 77 % 1007.1 hPa 0.0 l/m 3.4 km/h (1 Bft) SO 0.00 h 0 W/m 3.5 C 6.8 C 4.8 km/h (1 Bft)
09.03.2008 23:00 6.9 C 83 % 1006.9 hPa 0.2 l/m 1.6 km/h (1 Bft) S-SO 0.00 h 0 W/m 4.1 C 6.8 C 3.3 km/h (1 Bft)
Min-Datum _ 06.03.08 05.03.08 09.03.08 - 03.03.08 - - - 05.03.08 06.03.08 03.03.08
_ Min-Zeit 06:54 14:10 17:00 - 00:00 - - - 14:10 06:07 00:01
Minimum _ -4.7 C 32 % 1005.0 hPa - 0.0 km/h (0 Bft) - - - -11.2 C -6.7 C 0.0 km/h (0 Bft)
Max-Datum _ 09.03.08 09.03.08 05.03.08 04.03.08 03.03.08 - 03.03.08 04.03.08 03.03.08 09.03.08 03.03.08
_ Max-Zeit 15:20 06:05 20:15 08:11 17:23 - 13:46 13:19 13:53 15:20 17:23
Maximum _ 12.8 C 100 % 1030.6 hPa 0.8 l/m 31.3 km/h
W-NW (5 Bft)
- 0.02 h 802 W/m 8.3 C 12.8 C 52.1 km/h
W-NW (7 Bft)
Durchschnitt _ 2.9 C 73 % 1017.1 hPa #5.0 l/m 4.1 km/h (1 Bft) O-SO #32:45 h 217 W/m -1.8 C 2.3 C 7.2 km/h (2 Bft)
© Kaiko 2008